AirNav   ProFlight Series 2 Aviation Headset
 
 284 users online  

MI96 Detroit Border Patrol Heliport
Detroit, Michigan, USA

GOING TO DETROIT?


FAA INFORMATION EFFECTIVE 18 JUNE 2020

Location

FAA Identifier: MI96
Lat/Long: 42-22-02.0000N 082-58-03.0000W
42-22.033333N 082-58.050000W
42.3672222,-82.9675000
(estimated)
Elevation: 586 ft. / 179 m
Time zone: UTC -4 (UTC -5 during Standard Time)
Zip code: 48214

Heliport Operations

Heliport use: Private use. Permission required prior to landing
Activation date: 11/2016
Control tower: no
ARTCC: CLEVELAND CENTER
FSS: LANSING FLIGHT SERVICE STATION
Attendance: 
Segmented circle: no

Heliport Communications

WX ASOS at DET (3 nm NW): PHONE 313-371-9696
WX AWOS-3 at VLL (14 nm NW): 119.475 (248-288-4649)
WX AWOS-3 at ONZ (18 nm SW): 119.675 (734-692-9686)
WX ASOS at DTW (19 nm SW): 133.675 (734-955-5015)

Nearby radio navigation aids

VOR radial/distance  VOR name  Freq  Var
DXOr068/20.0DETROIT VOR/DME113.4006W
SVMr098/27.9SALEM VORTAC114.3003W
CRLr052/29.0CARLETON VOR/DME115.7003W

 
NDB name  Hdg/Dist  Freq  Var  ID
GROSSE ILE034/18.041907WRYS .-. -.-- ...

Heliport Services

Runway Information

Helipad H1

Dimensions: 60 x 60 ft. / 18 x 18 m
Surface: concrete
Traffic pattern: leftleft

Heliport Ownership and Management from official FAA records

Ownership: Privately-owned
Owner: U.S. BORDER PATROL
11700 E. JEFFERSON AVE
DETROIT, MI 48214
Manager: DAVID B. YORK
11700 E. JEFFERSON AVE
DETROIT, MI 48214
Phone 313-926-4700
ADNL CTC FRED SCHWARK FACILITY OPERATIONS SPECIALIST 586-487-0279.

Additional Remarks

FOR CD CTC CLEVELAND ARTCC AT 440-774-0490.

Instrument Procedures

There are no published instrument procedures at MI96.

Some nearby airports with instrument procedures:

KDET - Coleman A Young Municipal Airport (3 nm NW)
KVLL - Oakland/Troy Airport (14 nm NW)
KMTC - Selfridge Air National Guard Base (16 nm N)
KONZ - Grosse Ile Municipal Airport (18 nm SW)
KDTW - Detroit Metropolitan Wayne County Airport (19 nm SW)
 
Loc | Ops | Rwys | IFR | FBO | Links
Com | Nav | Svcs | Stats | Notes
Aerial photo
No photo
 
Airport distance calculator
Flying to Detroit Border Patrol Heliport? Find the distance to fly.

From to MI96

Sunrise and sunset
Times for 15-Jul-2020
 Local
(UTC-4)
 Zulu
(UTC)
Morning civil twilight05:3709:37
Sunrise06:1010:10
Sunset21:0601:06
Evening civil twilight21:3901:39

Current date and time
Zulu (UTC)  15-Jul-2020 07:51:26
Local (UTC-4)  15-Jul-2020 03:51:26
 
METAR
KDET 
3nm NW 
150653Z 00000KT 10SM CLR 22/17 A3010 RMK AO2 SLP190 T02170167
CYQG 
5nm S 
150700Z AUTO 00000KT 9SM CLR 19/17 A3010 RMK SLP192 DENSITY ALT 1000FT
KVLL 
14nm NW 
150715Z AUTO 00000KT 10SM CLR 21/17 A3012 RMK AO2 T02120173
KMTC 
16nm NE 
150656Z AUTO 18004KT 10SM BKN160 BKN180 21/20 A3009 RMK AO2 SLP191 T02090204
KONZ 
18nm SW 
150715Z AUTO 16006KT 10SM CLR 24/19 A3009 RMK AO2 T02360187
KDTW 
18nm SW 
150653Z 00000KT 10SM SCT095 BKN220 23/18 A3010 RMK AO2 SLP187 T02280178
TAF
KDET 
3nm NW 
150520Z 1506/1606 15003KT P6SM BKN200 FM151400 19007KT P6SM SCT250 FM152100 14007KT P6SM OVC200
CYQG 
5nm S 
150538Z 1506/1606 15005KT P6SM SCT250 BECMG 1516/1518 18012KT FM160200 16006KT P6SM BKN250 RMK FCST BASED ON AUTO OBS. NXT FCST BY 151200Z
KMTC 
16nm NE 
150100Z 1501/1607 17006KT 9999 FEW150 SCT250 QNH3001INS BECMG 1605/1606 13006KT 9999 FEW050 SCT200 QNH3000INS TX30/1520Z TN20/1509Z LAST NO AMDS AFT 1503 NEXT 1509
KDTW 
18nm SW 
150520Z 1506/1612 14003KT P6SM BKN200 FM151400 19007KT P6SM SCT250 FM152100 14007KT P6SM OVC200
NOTAMs
Click for the latest NOTAMs
NOTAMs are issued by the DoD/FAA and will open in a separate window not controlled by AirNav.

 

 
 

Would you like to see your business listed on this page?

 If your business provides an interesting product or service to pilots, flight crews, aircraft, or users of the Detroit Border Patrol Heliport, you should consider listing it here.  To start the listing process, click on the button below
 
Add a business
 

Other Pages about Detroit Border Patrol Heliport

Update a link
 
Copyright © AirNav, LLC. All rights reserved. Privacy Policy  Contact